sensor_id;sensor_type;location;lat;lon;timestamp;pressure;altitude;pressure_sealevel;temperature;humidity
39083;BME280;24834;44.444;26.098;2024-02-23T00:04:28;100312.13;;;12.16;
39083;BME280;24834;44.444;26.098;2024-02-23T00:10:30;100301.00;;;12.05;
39083;BME280;24834;44.444;26.098;2024-02-23T00:16:38;100292.44;;;11.94;
39083;BME280;24834;44.444;26.098;2024-02-23T00:22:42;100306.50;;;11.90;
39083;BME280;24834;44.444;26.098;2024-02-23T00:28:47;100282.88;;;11.85;
39083;BME280;24834;44.444;26.098;2024-02-23T00:34:51;100286.91;;;11.96;
39083;BME280;24834;44.444;26.098;2024-02-23T00:40:54;100295.72;;;12.05;
39083;BME280;24834;44.444;26.098;2024-02-23T00:46:56;100289.06;;;12.08;
39083;BME280;24834;44.444;26.098;2024-02-23T00:53:03;100272.84;;;12.01;
39083;BME280;24834;44.444;26.098;2024-02-23T00:59:07;100269.28;;;12.10;
39083;BME280;24834;44.444;26.098;2024-02-23T01:05:10;100259.19;;;11.85;
39083;BME280;24834;44.444;26.098;2024-02-23T01:11:12;100253.50;;;11.78;
39083;BME280;24834;44.444;26.098;2024-02-23T01:17:15;100245.13;;;11.89;
39083;BME280;24834;44.444;26.098;2024-02-23T01:23:17;100231.84;;;11.94;
39083;BME280;24834;44.444;26.098;2024-02-23T01:29:22;100238.69;;;11.95;
39083;BME280;24834;44.444;26.098;2024-02-23T01:35:24;100240.25;;;11.97;
39083;BME280;24834;44.444;26.098;2024-02-23T01:41:27;100234.88;;;12.02;
39083;BME280;24834;44.444;26.098;2024-02-23T01:47:30;100234.81;;;11.93;
39083;BME280;24834;44.444;26.098;2024-02-23T01:53:34;100233.13;;;11.83;
39083;BME280;24834;44.444;26.098;2024-02-23T01:59:39;100231.47;;;11.87;
39083;BME280;24834;44.444;26.098;2024-02-23T02:05:41;100232.09;;;11.66;
39083;BME280;24834;44.444;26.098;2024-02-23T02:11:48;100224.13;;;11.71;
39083;BME280;24834;44.444;26.098;2024-02-23T02:17:54;100250.75;;;11.69;
39083;BME280;24834;44.444;26.098;2024-02-23T02:23:56;100233.16;;;11.65;
39083;BME280;24834;44.444;26.098;2024-02-23T02:30:01;100233.94;;;11.65;
39083;BME280;24834;44.444;26.098;2024-02-23T02:36:03;100225.66;;;11.72;
39083;BME280;24834;44.444;26.098;2024-02-23T02:42:06;100209.03;;;11.58;
39083;BME280;24834;44.444;26.098;2024-02-23T02:48:08;100212.97;;;11.60;
39083;BME280;24834;44.444;26.098;2024-02-23T02:54:11;100233.50;;;11.45;
39083;BME280;24834;44.444;26.098;2024-02-23T03:00:14;100232.22;;;11.42;
39083;BME280;24834;44.444;26.098;2024-02-23T03:06:18;100231.06;;;11.48;
39083;BME280;24834;44.444;26.098;2024-02-23T03:12:20;100242.81;;;11.37;
39083;BME280;24834;44.444;26.098;2024-02-23T03:18:24;100243.75;;;11.09;
39083;BME280;24834;44.444;26.098;2024-02-23T03:24:27;100254.34;;;11.04;
39083;BME280;24834;44.444;26.098;2024-02-23T03:30:29;100247.91;;;10.91;
39083;BME280;24834;44.444;26.098;2024-02-23T03:36:34;100245.63;;;10.84;
39083;BME280;24834;44.444;26.098;2024-02-23T03:42:38;100240.66;;;10.83;
39083;BME280;24834;44.444;26.098;2024-02-23T03:48:43;100254.88;;;10.82;
39083;BME280;24834;44.444;26.098;2024-02-23T03:54:46;100247.84;;;10.77;
39083;BME280;24834;44.444;26.098;2024-02-23T04:00:48;100253.50;;;10.66;
39083;BME280;24834;44.444;26.098;2024-02-23T04:06:51;100247.22;;;10.85;
39083;BME280;24834;44.444;26.098;2024-02-23T04:12:53;100250.47;;;10.77;
39083;BME280;24834;44.444;26.098;2024-02-23T04:18:56;100252.72;;;10.65;
39083;BME280;24834;44.444;26.098;2024-02-23T04:24:58;100234.88;;;10.38;
39083;BME280;24834;44.444;26.098;2024-02-23T04:31:00;100234.03;;;10.43;
39083;BME280;24834;44.444;26.098;2024-02-23T04:37:02;100238.41;;;10.53;
39083;BME280;24834;44.444;26.098;2024-02-23T04:43:05;100233.69;;;10.50;
39083;BME280;24834;44.444;26.098;2024-02-23T04:49:07;100236.94;;;10.65;
39083;BME280;24834;44.444;26.098;2024-02-23T04:55:09;100225.50;;;10.75;
39083;BME280;24834;44.444;26.098;2024-02-23T05:07:39;100236.69;;;10.85;
39083;BME280;24834;44.444;26.098;2024-02-23T05:13:41;100239.84;;;10.87;
39083;BME280;24834;44.444;26.098;2024-02-23T05:19:43;100239.22;;;10.96;
